createdAt,value
2023-04-18T04:02:34.268Z,79.89
2023-04-18T04:05:02.652Z,80.10
2023-04-18T04:07:29.417Z,80.26
2023-04-18T04:09:56.070Z,80.16
2023-04-18T04:12:22.649Z,80.25
2023-04-18T04:14:49.194Z,80.04
2023-04-18T04:17:15.963Z,80.31
2023-04-18T04:19:42.485Z,80.49
2023-04-18T04:22:09.397Z,80.37
2023-04-18T04:24:38.475Z,80.43
2023-04-18T04:27:05.283Z,80.20
2023-04-18T04:29:31.825Z,80.20
2023-04-18T04:31:59.848Z,80.34
2023-04-18T04:34:27.019Z,80.38
2023-04-18T04:36:55.098Z,80.60
2023-04-18T04:39:21.920Z,80.39
2023-04-18T04:41:49.408Z,80.49
2023-04-18T04:44:18.057Z,80.54
2023-04-18T04:46:45.452Z,80.84
2023-04-18T04:49:13.275Z,80.65
2023-04-18T04:51:40.371Z,80.75
2023-04-18T04:54:06.989Z,80.71
2023-04-18T04:56:33.661Z,80.23
2023-04-18T04:59:00.911Z,80.13
2023-04-18T05:01:40.017Z,80.25
2023-04-18T05:04:06.820Z,80.21
2023-04-18T05:06:34.151Z,80.31
2023-04-18T05:09:01.233Z,80.17
2023-04-18T05:11:27.850Z,80.19
2023-04-18T05:13:54.592Z,80.02
2023-04-18T05:16:21.217Z,79.98
2023-04-18T05:18:48.716Z,79.93
2023-04-18T05:21:15.438Z,80.17
2023-04-18T05:23:42.325Z,80.17
2023-04-18T05:26:09.225Z,80.35
2023-04-18T05:28:35.773Z,80.07
2023-04-18T05:31:02.487Z,80.14
2023-04-18T05:33:30.799Z,80.37
2023-04-18T05:35:58.058Z,80.79
2023-04-18T05:38:25.094Z,80.20
2023-04-18T05:40:51.765Z,80.12
2023-04-18T05:43:19.456Z,79.79
2023-04-18T05:45:46.987Z,79.98
2023-04-18T05:48:14.403Z,79.88
2023-04-18T05:50:41.533Z,80.18
2023-04-18T05:53:08.686Z,80.53
2023-04-18T05:55:35.412Z,80.18
2023-04-18T05:58:02.592Z,80.06
2023-04-18T06:00:30.878Z,80.25
2023-04-18T06:02:58.586Z,79.94
2023-04-18T06:05:25.449Z,80.02
2023-04-18T06:07:52.278Z,80.06
2023-04-18T06:10:19.390Z,80.04
2023-04-18T06:12:45.968Z,80.07
2023-04-18T06:15:12.602Z,79.97
2023-04-18T06:17:39.624Z,80.03
2023-04-18T06:20:07.077Z,79.85
2023-04-18T06:22:36.790Z,79.70
2023-04-18T06:25:04.105Z,80.01
2023-04-18T06:27:32.155Z,79.97
2023-04-18T06:29:58.978Z,80.21
2023-04-18T06:32:25.934Z,80.25
2023-04-18T06:34:53.523Z,80.31
2023-04-18T06:37:20.693Z,79.72
2023-04-18T06:39:47.436Z,79.02
2023-04-18T06:42:13.997Z,79.23
2023-04-18T06:44:43.095Z,78.91
2023-04-18T06:47:10.541Z,78.90
2023-04-18T06:49:37.148Z,79.11
2023-04-18T06:52:03.810Z,79.21
2023-04-18T06:54:30.353Z,79.37
2023-04-18T06:56:57.229Z,79.16
2023-04-18T06:59:23.824Z,79.28
2023-04-18T07:01:51.422Z,79.54
2023-04-18T07:04:18.413Z,79.08
2023-04-18T07:06:45.434Z,79.46
2023-04-18T07:09:11.984Z,79.35
2023-04-18T07:11:40.561Z,79.01
2023-04-18T07:14:07.218Z,79.34
2023-04-18T07:16:34.590Z,78.87
2023-04-18T07:19:01.285Z,78.82
2023-04-18T07:21:28.042Z,78.55
2023-04-18T07:23:54.665Z,77.95
2023-04-18T07:26:21.216Z,77.34
2023-04-18T07:28:48.803Z,77.01
2023-04-18T07:31:16.568Z,76.61
2023-04-18T07:33:43.467Z,75.90
2023-04-18T07:36:10.208Z,76.09
2023-04-18T07:38:36.880Z,76.79
2023-04-18T07:41:03.683Z,76.24
2023-04-18T07:43:30.660Z,76.35
2023-04-18T07:45:57.357Z,76.12
2023-04-18T07:48:25.333Z,75.63
2023-04-18T07:50:52.450Z,75.34
2023-04-18T07:53:19.057Z,74.60
2023-04-18T07:55:46.592Z,74.80
2023-04-18T07:58:13.603Z,75.04
2023-04-18T08:00:43.274Z,74.17
2023-04-18T08:03:13.040Z,72.11
2023-04-18T08:05:40.957Z,69.91
2023-04-18T08:08:09.326Z,71.46
2023-04-18T08:10:36.267Z,72.52
2023-04-18T08:13:03.810Z,72.76
2023-04-18T08:15:32.601Z,72.37
2023-04-18T08:18:00.714Z,71.23
2023-04-18T08:20:29.234Z,68.50
2023-04-18T08:25:25.664Z,71.65
2023-04-18T08:27:52.242Z,72.27
2023-04-18T08:30:19.467Z,72.21
2023-04-18T08:32:46.057Z,72.79
2023-04-18T08:35:12.808Z,72.45
2023-04-18T08:37:39.385Z,72.69
2023-04-18T08:40:07.508Z,72.60
2023-04-18T08:42:36.324Z,72.40
2023-04-18T08:45:04.276Z,72.82
2023-04-18T08:47:31.186Z,72.91
2023-04-18T08:49:58.609Z,72.59
2023-04-18T08:52:28.357Z,71.72
2023-04-18T08:54:54.889Z,72.55
2023-04-18T08:57:27.001Z,71.87
2023-04-18T08:59:54.374Z,71.79
2023-04-18T09:02:26.888Z,71.78
2023-04-18T09:04:53.649Z,71.84
2023-04-18T09:07:27.707Z,72.15
2023-04-18T09:09:59.462Z,70.76
2023-04-18T09:12:27.991Z,69.89
2023-04-18T09:14:57.845Z,68.47
2023-04-18T09:17:31.722Z,68.29
2023-04-18T09:19:59.905Z,68.87
2023-04-18T09:22:26.436Z,69.83
2023-04-18T09:24:58.716Z,69.19
2023-04-18T09:27:25.311Z,68.29
2023-04-18T09:29:54.751Z,68.94
2023-04-18T09:32:29.476Z,68.54
2023-04-18T09:35:05.404Z,68.40
2023-04-18T09:37:32.102Z,67.65
2023-04-18T09:39:58.731Z,67.66
2023-04-18T09:42:28.189Z,66.32
2023-04-18T09:45:06.618Z,66.48
2023-04-18T09:47:35.243Z,65.69
2023-04-18T09:50:06.772Z,66.33
2023-04-18T09:52:38.537Z,65.79
2023-04-18T09:55:07.566Z,66.32
2023-04-18T09:57:35.870Z,66.21
2023-04-18T10:00:26.524Z,66.76
2023-04-18T10:03:09.958Z,67.20
2023-04-18T10:05:39.778Z,66.18
2023-04-18T10:08:07.065Z,66.04
2023-04-18T10:10:38.960Z,64.89
2023-04-18T10:13:08.474Z,64.81
2023-04-18T10:15:35.258Z,65.03
2023-04-18T10:18:11.501Z,64.68
2023-04-18T10:20:41.215Z,64.45
2023-04-18T10:23:34.656Z,63.76
2023-04-18T10:26:02.923Z,61.79
2023-04-18T10:28:54.683Z,60.03
2023-04-18T10:31:23.075Z,56.28
2023-04-18T10:34:03.985Z,57.02
2023-04-18T10:36:32.497Z,55.99
2023-04-18T10:39:21.566Z,58.54
2023-04-18T10:41:50.581Z,57.98
2023-04-18T10:44:19.617Z,56.48
2023-04-18T10:46:52.070Z,55.87
2023-04-18T10:49:27.859Z,57.58
2023-04-18T10:51:58.710Z,59.00
2023-04-18T10:54:46.582Z,58.12
2023-04-18T10:57:13.880Z,55.43
2023-04-18T10:59:48.083Z,52.21
2023-04-18T11:02:32.354Z,52.61
2023-04-18T11:05:01.551Z,56.46
2023-04-18T11:07:37.412Z,58.49
2023-04-18T11:10:05.605Z,58.06
2023-04-18T11:12:34.878Z,57.35
2023-04-18T11:15:10.635Z,57.23
2023-04-18T11:17:40.127Z,57.57
2023-04-18T11:20:15.326Z,57.09
2023-04-18T11:22:48.898Z,58.34
2023-04-18T11:25:16.690Z,59.21
2023-04-18T11:27:45.184Z,60.38
2023-04-18T11:30:13.148Z,61.84
2023-04-18T11:32:39.899Z,62.43
2023-04-18T11:35:09.507Z,63.92
2023-04-18T11:37:37.768Z,64.45
2023-04-18T11:40:08.726Z,63.01
2023-04-18T11:42:37.364Z,56.94
2023-04-18T11:45:04.464Z,58.00
2023-04-18T11:47:34.309Z,59.26
2023-04-18T11:50:03.937Z,60.23
2023-04-18T11:52:31.377Z,62.17
2023-04-18T11:55:21.158Z,63.26
2023-04-18T11:58:01.079Z,63.63
2023-04-18T12:00:39.477Z,63.15
2023-04-18T12:03:11.868Z,64.14
2023-04-18T12:05:40.205Z,63.13
2023-04-18T12:08:17.318Z,63.40
2023-04-18T12:10:50.529Z,63.67
2023-04-18T12:13:18.050Z,63.79
2023-04-18T12:15:46.263Z,64.51
2023-04-18T12:18:15.355Z,64.23
2023-04-18T12:20:54.313Z,65.75
2023-04-18T12:23:36.362Z,66.18
2023-04-18T12:26:07.673Z,66.73
2023-04-18T12:28:35.422Z,67.07
2023-04-18T12:31:02.556Z,66.34
2023-04-18T12:33:30.629Z,66.64
2023-04-18T12:35:57.457Z,66.40
2023-04-18T12:38:24.279Z,66.96
2023-04-18T12:40:51.693Z,68.07
2023-04-18T12:43:18.927Z,68.18
2023-04-18T12:45:46.902Z,68.00
2023-04-18T12:48:13.765Z,68.20
2023-04-18T12:50:40.456Z,68.21
2023-04-18T12:53:07.038Z,68.08
2023-04-18T12:55:33.637Z,68.40
2023-04-18T12:58:00.731Z,68.90
2023-04-18T13:00:30.133Z,69.05
2023-04-18T13:02:57.749Z,69.15
2023-04-18T13:05:29.224Z,68.94
2023-04-18T13:08:08.575Z,69.28
2023-04-18T13:10:39.700Z,69.87
2023-04-18T13:13:06.380Z,70.07
2023-04-18T13:15:40.692Z,69.61
2023-04-18T13:18:07.957Z,69.10
2023-04-18T13:20:34.940Z,68.45
2023-04-18T13:23:02.992Z,66.90
2023-04-18T13:25:29.679Z,65.89
2023-04-18T13:27:58.286Z,66.37
2023-04-18T13:30:24.867Z,66.60
2023-04-18T13:32:51.779Z,66.03
2023-04-18T13:35:18.488Z,66.46
2023-04-18T13:37:45.045Z,66.53
2023-04-18T13:40:12.103Z,65.24
2023-04-18T13:42:38.835Z,64.94
2023-04-18T13:45:06.283Z,63.60
2023-04-18T13:47:32.934Z,61.57
2023-04-18T13:49:59.546Z,61.86
2023-04-18T13:52:26.252Z,61.16
2023-04-18T13:54:53.098Z,62.48
2023-04-18T13:57:19.864Z,59.91
2023-04-18T13:59:46.894Z,60.56
2023-04-18T14:02:13.743Z,60.54
2023-04-18T14:04:40.988Z,62.34
2023-04-18T14:07:08.161Z,62.32
2023-04-18T14:09:34.837Z,61.12
2023-04-18T14:12:02.112Z,59.37
2023-04-18T14:14:28.759Z,60.84
2023-04-18T14:16:56.239Z,62.50
2023-04-18T14:19:23.262Z,62.99
2023-04-18T14:21:50.159Z,63.30
2023-04-18T14:24:17.108Z,63.52
2023-04-18T14:26:44.120Z,64.48
2023-04-18T14:29:11.754Z,64.43
2023-04-18T14:31:38.516Z,64.78
2023-04-18T14:34:05.643Z,64.67
2023-04-18T14:36:33.003Z,64.08
2023-04-18T14:38:59.591Z,64.45
2023-04-18T14:41:26.546Z,63.43
2023-04-18T14:43:53.404Z,63.89
2023-04-18T14:46:22.532Z,62.24
2023-04-18T14:48:49.389Z,60.88
2023-04-18T14:51:16.912Z,60.66
2023-04-18T14:53:44.517Z,61.69
2023-04-18T14:56:11.262Z,62.79
2023-04-18T14:58:38.351Z,63.57
2023-04-18T15:01:06.327Z,63.58
2023-04-18T15:03:33.431Z,64.25
2023-04-18T15:06:00.311Z,63.46
2023-04-18T15:08:27.046Z,61.97
2023-04-18T15:10:53.594Z,59.83
2023-04-18T15:13:20.450Z,59.66
2023-04-18T15:15:55.166Z,61.23
2023-04-18T15:18:22.030Z,62.08
2023-04-18T15:20:48.666Z,62.26
2023-04-18T15:23:15.518Z,63.20
2023-04-18T15:25:43.862Z,63.79
2023-04-18T15:28:10.532Z,64.40
2023-04-18T15:30:37.094Z,64.13
2023-04-18T15:33:03.771Z,63.73
2023-04-18T15:35:30.488Z,63.02
2023-04-18T15:37:58.255Z,63.04
2023-04-18T15:40:24.904Z,63.02
2023-04-18T15:42:53.791Z,63.23
2023-04-18T15:45:21.425Z,63.52
2023-04-18T15:47:48.153Z,63.12
2023-04-18T15:50:16.011Z,63.07
2023-04-18T15:52:42.757Z,62.91
2023-04-18T15:55:11.241Z,62.96
2023-04-18T15:57:37.790Z,62.22
2023-04-18T16:00:19.617Z,62.00
2023-04-18T16:02:46.869Z,62.87
2023-04-18T16:05:13.974Z,62.46
2023-04-18T16:07:42.388Z,62.69
2023-04-18T16:10:10.691Z,63.14
2023-04-18T16:12:38.563Z,63.33
2023-04-18T16:15:06.690Z,63.19
2023-04-18T16:17:33.295Z,64.07
2023-04-18T16:19:59.883Z,64.40
2023-04-18T16:22:27.289Z,63.59
2023-04-18T16:24:53.896Z,63.94
2023-04-18T16:27:20.559Z,64.03
2023-04-18T16:29:48.239Z,63.50
2023-04-18T16:32:14.880Z,63.67
2023-04-18T16:34:41.469Z,64.05
2023-04-18T16:37:08.106Z,64.35
2023-04-18T16:39:34.732Z,64.99
2023-04-18T16:42:01.498Z,65.12
2023-04-18T16:44:29.246Z,65.32
2023-04-18T16:46:56.019Z,65.34
2023-04-18T16:49:23.704Z,65.06
2023-04-18T16:51:50.414Z,64.51
2023-04-18T16:54:17.242Z,64.20
2023-04-18T16:56:44.815Z,64.62
2023-04-18T16:59:11.612Z,64.58
2023-04-18T17:01:38.315Z,64.96
2023-04-18T17:04:05.366Z,64.94
2023-04-18T17:06:32.775Z,65.42
2023-04-18T17:08:59.437Z,65.72
2023-04-18T17:11:26.531Z,65.99
2023-04-18T17:13:53.185Z,66.36
2023-04-18T17:16:20.036Z,66.68
2023-04-18T17:18:46.614Z,66.72
2023-04-18T17:21:13.206Z,67.20
2023-04-18T17:23:41.574Z,67.60
2023-04-18T17:26:11.212Z,67.03
2023-04-18T17:28:37.845Z,67.11
2023-04-18T17:31:04.747Z,67.05
2023-04-18T17:33:31.702Z,66.85
2023-04-18T17:35:58.683Z,66.61
2023-04-18T17:38:25.476Z,66.72
2023-04-18T17:41:02.592Z,66.96
2023-04-18T17:43:29.506Z,67.26
2023-04-18T17:45:56.991Z,67.74
2023-04-18T17:48:23.687Z,68.09
2023-04-18T17:50:50.292Z,68.26
2023-04-18T17:53:17.999Z,68.51
2023-04-18T17:55:45.322Z,68.61
2023-04-18T17:58:11.943Z,68.73
2023-04-18T18:00:38.495Z,68.79
2023-04-18T18:03:05.583Z,68.96
2023-04-18T18:05:32.400Z,69.30
2023-04-18T18:08:01.007Z,69.64
2023-04-18T18:10:28.053Z,70.09
2023-04-18T18:12:54.565Z,70.11
2023-04-18T18:15:21.255Z,70.63
2023-04-18T18:17:49.717Z,70.77
2023-04-18T18:20:17.082Z,70.90
2023-04-18T18:22:44.551Z,70.97
2023-04-18T18:25:11.134Z,71.02
2023-04-18T18:27:37.680Z,71.11
2023-04-18T18:30:04.725Z,71.03
2023-04-18T18:32:31.293Z,71.40
2023-04-18T18:34:58.045Z,71.84
2023-04-18T18:37:26.682Z,72.03
2023-04-18T18:39:59.885Z,72.28
2023-04-18T18:42:26.522Z,72.57
2023-04-18T18:44:53.041Z,72.90
2023-04-18T18:47:19.605Z,73.17
2023-04-18T18:49:46.536Z,73.44
2023-04-18T18:52:13.060Z,73.76
2023-04-18T18:54:39.617Z,73.96
2023-04-18T18:57:06.189Z,74.23
2023-04-18T18:59:32.719Z,74.46
2023-04-18T19:01:59.478Z,74.62
2023-04-18T19:04:26.540Z,74.97
2023-04-18T19:06:53.632Z,74.94
2023-04-18T19:09:21.252Z,75.25
2023-04-18T19:11:47.838Z,75.54
2023-04-18T19:14:14.453Z,75.63
2023-04-18T19:16:41.127Z,75.74
2023-04-18T19:19:07.732Z,75.91
2023-04-18T19:21:34.276Z,76.28
2023-04-18T19:24:00.815Z,75.97
2023-04-18T19:26:27.334Z,75.80
2023-04-18T19:28:54.500Z,75.93
2023-04-18T19:31:21.061Z,75.90
2023-04-18T19:33:47.580Z,76.05
2023-04-18T19:36:14.180Z,76.02
2023-04-18T19:38:41.561Z,76.06
2023-04-18T19:41:08.132Z,76.14
2023-04-18T19:43:34.811Z,76.32
2023-04-18T19:46:01.430Z,76.39
2023-04-18T19:48:28.103Z,76.58
2023-04-18T19:50:56.369Z,76.72
2023-04-18T19:53:23.781Z,76.86
2023-04-18T19:55:50.409Z,77.16
2023-04-18T19:58:46.820Z,77.47
2023-04-18T20:01:14.439Z,77.50
2023-04-18T20:03:41.447Z,77.54
2023-04-18T20:06:08.970Z,77.99
2023-04-18T20:08:37.007Z,78.16
2023-04-18T20:11:11.244Z,78.26
2023-04-18T20:13:38.234Z,78.13
2023-04-18T20:16:05.977Z,78.20
2023-04-18T20:18:33.991Z,78.22
2023-04-18T20:21:00.593Z,78.36
2023-04-18T20:23:27.406Z,77.98
2023-04-18T20:25:54.117Z,77.67
2023-04-18T20:28:20.706Z,77.42
2023-04-18T20:30:48.052Z,77.40
2023-04-18T20:33:14.738Z,77.36
2023-04-18T20:35:41.633Z,77.36
2023-04-18T20:38:09.815Z,77.47
2023-04-18T20:40:37.247Z,77.77
2023-04-18T20:43:04.249Z,77.70
2023-04-18T20:45:31.856Z,77.44
2023-04-18T20:47:58.870Z,77.89
2023-04-18T20:50:25.489Z,78.09
2023-04-18T20:52:52.026Z,78.38
2023-04-18T20:55:18.602Z,78.57
2023-04-18T20:57:45.361Z,78.46
2023-04-18T21:00:13.907Z,78.53
2023-04-18T21:02:41.687Z,78.20
2023-04-18T21:05:08.832Z,77.69
2023-04-18T21:07:36.142Z,77.56
2023-04-18T21:10:03.722Z,77.22
2023-04-18T21:12:30.437Z,77.18
2023-04-18T21:14:57.082Z,77.25
2023-04-18T21:17:25.522Z,77.15
2023-04-18T21:19:52.479Z,77.28
2023-04-18T21:22:19.179Z,77.58
2023-04-18T21:24:46.927Z,77.76
2023-04-18T21:27:15.053Z,77.77
2023-04-18T21:29:42.320Z,77.63
2023-04-18T21:32:08.886Z,77.49
2023-04-18T21:34:35.617Z,77.56
2023-04-18T21:37:02.215Z,77.54
2023-04-18T21:39:28.762Z,77.48
2023-04-18T21:41:55.339Z,77.39
2023-04-18T21:44:21.874Z,77.61
2023-04-18T21:46:48.436Z,77.64
2023-04-18T21:49:15.604Z,77.81
2023-04-18T21:51:42.492Z,77.99
2023-04-18T21:54:09.456Z,77.83
